createdAt,value
2022-10-24T00:01:03.072Z,79.25
2022-10-24T00:03:29.351Z,74.93
2022-10-24T00:05:55.591Z,80.05
2022-10-24T00:08:21.843Z,74.80
2022-10-24T00:10:48.088Z,73.35
2022-10-24T00:13:14.360Z,70.35
2022-10-24T00:15:40.621Z,66.38
2022-10-24T00:18:06.882Z,64.50
2022-10-24T00:20:33.194Z,72.75
2022-10-24T00:22:59.482Z,72.40
2022-10-24T00:25:25.731Z,71.00
2022-10-24T00:27:51.989Z,75.80
2022-10-24T00:30:18.248Z,81.78
2022-10-24T00:32:44.802Z,72.30
2022-10-24T00:35:11.267Z,67.05
2022-10-24T00:37:37.525Z,65.03
2022-10-24T00:40:05.223Z,67.15
2022-10-24T00:42:31.467Z,63.05
2022-10-24T00:44:57.732Z,67.05
2022-10-24T00:47:24.797Z,66.78
2022-10-24T00:49:50.991Z,74.30
2022-10-24T00:52:17.242Z,81.72
2022-10-24T00:54:43.521Z,96.13
2022-10-24T00:57:09.821Z,91.80
2022-10-24T00:59:36.066Z,68.90
2022-10-24T01:02:02.347Z,64.03
2022-10-24T01:04:28.612Z,61.85
2022-10-24T01:06:54.885Z,64.25
2022-10-24T01:09:21.154Z,66.53
2022-10-24T01:11:47.541Z,66.35
2022-10-24T01:14:13.891Z,66.10
2022-10-24T01:16:40.153Z,71.03
2022-10-24T01:19:06.409Z,75.82
2022-10-24T01:21:32.652Z,76.82
2022-10-24T01:23:58.906Z,95.82
2022-10-24T01:26:25.177Z,93.65
2022-10-24T01:28:51.426Z,101.88
2022-10-24T01:31:17.674Z,81.80
2022-10-24T01:33:43.933Z,81.63
2022-10-24T01:36:10.191Z,80.95
2022-10-24T01:38:36.446Z,80.00
2022-10-24T01:41:02.699Z,81.65
2022-10-24T01:43:28.950Z,77.70
2022-10-24T01:45:55.202Z,81.70
2022-10-24T01:48:21.716Z,84.95
2022-10-24T01:50:47.972Z,76.55
2022-10-24T01:53:14.261Z,77.97
2022-10-24T01:55:40.515Z,87.68
2022-10-24T01:58:06.775Z,106.70
2022-10-24T02:00:33.117Z,100.30
2022-10-24T02:02:59.503Z,102.80
2022-10-24T02:05:25.757Z,94.90
2022-10-24T02:07:52.157Z,96.53
2022-10-24T02:10:18.423Z,103.75
2022-10-24T02:12:44.866Z,85.15
2022-10-24T02:15:11.337Z,82.15
2022-10-24T02:17:37.650Z,107.47
2022-10-24T02:20:04.016Z,93.25
2022-10-24T02:22:30.258Z,96.97
2022-10-24T02:24:56.505Z,88.43
2022-10-24T02:27:22.764Z,80.65
2022-10-24T02:29:49.021Z,95.05
2022-10-24T02:32:15.275Z,100.85
2022-10-24T02:34:41.532Z,92.07
2022-10-24T02:37:07.772Z,82.15
2022-10-24T02:39:34.096Z,79.82
2022-10-24T02:42:00.355Z,84.22
2022-10-24T02:44:26.612Z,79.97
2022-10-24T02:46:52.871Z,81.88
2022-10-24T02:49:19.150Z,79.75
2022-10-24T02:51:45.402Z,77.57
2022-10-24T02:54:11.653Z,77.57
2022-10-24T02:56:37.912Z,76.68
2022-10-24T02:59:04.205Z,74.28
2022-10-24T03:01:30.575Z,77.97
2022-10-24T03:03:56.911Z,80.05
2022-10-24T03:06:23.168Z,85.18
2022-10-24T03:08:49.475Z,88.85
2022-10-24T03:11:15.725Z,78.88
2022-10-24T03:13:42.041Z,75.78
2022-10-24T03:16:11.641Z,82.38
2022-10-24T03:18:40.287Z,85.95
2022-10-24T03:21:06.538Z,87.72
2022-10-24T03:23:32.889Z,85.45
2022-10-24T03:25:59.184Z,85.07
2022-10-24T03:28:25.451Z,81.70
2022-10-24T03:30:53.135Z,82.47
2022-10-24T03:33:19.428Z,80.15
2022-10-24T03:35:45.666Z,87.75
2022-10-24T03:38:11.932Z,90.47
2022-10-24T03:40:38.215Z,90.18
2022-10-24T03:43:04.506Z,93.57
2022-10-24T03:45:30.747Z,87.45
2022-10-24T03:47:57.010Z,97.78
2022-10-24T03:50:23.251Z,88.05
2022-10-24T03:52:49.527Z,89.72
2022-10-24T03:55:15.794Z,90.97
2022-10-24T03:57:42.157Z,79.28
2022-10-24T04:00:08.543Z,73.78
2022-10-24T04:02:35.161Z,83.70
2022-10-24T04:05:01.875Z,80.20
2022-10-24T04:07:28.131Z,78.38
2022-10-24T04:09:55.493Z,82.72
2022-10-24T04:12:21.747Z,81.25
2022-10-24T04:14:48.027Z,85.43
2022-10-24T04:17:14.276Z,86.57
2022-10-24T04:19:40.528Z,81.00
2022-10-24T04:22:06.880Z,82.40
2022-10-24T04:24:33.190Z,92.45
2022-10-24T04:26:59.430Z,91.22
2022-10-24T04:29:25.706Z,89.75
2022-10-24T04:31:51.942Z,92.38
2022-10-24T04:34:18.197Z,85.50
2022-10-24T04:36:44.466Z,77.72
2022-10-24T04:39:10.782Z,89.00
2022-10-24T04:41:37.036Z,87.32
2022-10-24T04:44:03.296Z,91.22
2022-10-24T04:46:29.541Z,83.90
2022-10-24T04:48:55.955Z,83.25
2022-10-24T04:51:22.685Z,79.45
2022-10-24T04:53:49.127Z,83.93
2022-10-24T04:56:15.374Z,85.97
2022-10-24T04:58:41.689Z,88.50
2022-10-24T05:01:07.958Z,75.25
2022-10-24T05:03:34.389Z,80.35
2022-10-24T05:06:00.628Z,88.25
2022-10-24T05:08:27.572Z,83.97
2022-10-24T05:10:53.824Z,89.80
2022-10-24T05:13:23.671Z,84.20
2022-10-24T05:15:49.923Z,81.32
2022-10-24T05:18:16.222Z,83.03
2022-10-24T05:20:42.482Z,83.80
2022-10-24T05:23:09.424Z,90.30
2022-10-24T05:25:35.674Z,89.55
2022-10-24T05:28:01.956Z,81.78
2022-10-24T05:30:28.276Z,76.68
2022-10-24T05:32:54.529Z,68.35
2022-10-24T05:35:20.784Z,76.35
2022-10-24T05:37:47.031Z,79.10
2022-10-24T05:40:13.961Z,72.50
2022-10-24T05:42:40.238Z,72.55
2022-10-24T05:45:06.501Z,73.22
2022-10-24T05:47:32.752Z,65.47
2022-10-24T05:49:58.998Z,69.13
2022-10-24T05:52:25.299Z,64.85
2022-10-24T05:55:02.407Z,66.05
2022-10-24T05:57:32.906Z,67.53
2022-10-24T05:59:59.168Z,66.75
2022-10-24T06:02:25.536Z,72.20
2022-10-24T06:04:51.946Z,68.22
2022-10-24T06:07:18.196Z,69.70
2022-10-24T06:09:44.439Z,72.05
2022-10-24T06:12:10.694Z,73.32
2022-10-24T06:14:36.944Z,75.22
2022-10-24T06:17:05.397Z,66.50
2022-10-24T06:19:31.652Z,75.38
2022-10-24T06:21:57.909Z,79.95
2022-10-24T06:24:24.145Z,84.13
2022-10-24T06:26:50.423Z,73.07
2022-10-24T06:29:16.694Z,72.50
2022-10-24T06:31:42.953Z,71.25
2022-10-24T06:34:09.263Z,68.35
2022-10-24T06:36:36.861Z,72.90
2022-10-24T06:39:03.154Z,82.13
2022-10-24T06:41:29.461Z,75.45
2022-10-24T06:43:56.410Z,70.13
2022-10-24T06:46:23.355Z,71.07
2022-10-24T06:48:49.682Z,68.30
2022-10-24T06:51:16.080Z,74.47
2022-10-24T06:53:42.511Z,82.22
2022-10-24T06:56:08.766Z,85.55
2022-10-24T06:58:35.030Z,81.07
2022-10-24T07:01:01.376Z,76.40
2022-10-24T07:03:27.774Z,70.95
2022-10-24T07:05:54.030Z,74.82
2022-10-24T07:08:20.442Z,63.95
2022-10-24T07:10:46.696Z,69.18
2022-10-24T07:13:13.030Z,76.75
2022-10-24T07:15:39.306Z,71.95
2022-10-24T07:18:05.584Z,73.85
2022-10-24T07:20:31.908Z,88.57
2022-10-24T07:22:58.191Z,108.75
2022-10-24T07:25:24.501Z,72.47
2022-10-24T07:27:52.529Z,74.90
2022-10-24T07:32:45.425Z,63.55
2022-10-24T07:35:12.041Z,70.50
2022-10-24T07:37:38.333Z,1999.90
2022-10-24T07:40:04.602Z,1999.90
2022-10-24T07:42:30.904Z,1999.90
2022-10-24T07:44:57.195Z,1999.90
2022-10-24T07:47:23.452Z,1999.90
2022-10-24T07:49:49.717Z,1999.90
2022-10-24T07:52:15.994Z,1999.90
2022-10-24T07:54:42.256Z,1999.90
2022-10-24T07:57:08.563Z,1999.90
2022-10-24T07:59:42.160Z,1999.90
2022-10-24T08:02:08.996Z,1999.90
2022-10-24T08:04:35.262Z,1999.90
2022-10-24T08:07:01.510Z,1999.90
2022-10-24T08:09:27.814Z,1999.90
2022-10-24T08:11:54.090Z,1999.90
2022-10-24T08:14:20.492Z,1999.90
2022-10-24T08:16:46.768Z,1999.90
2022-10-24T08:19:13.070Z,1999.90
2022-10-24T08:21:39.356Z,1999.90
2022-10-24T08:24:05.682Z,1999.90
2022-10-24T08:26:31.936Z,1999.90
2022-10-24T08:28:58.305Z,1999.90
2022-10-24T08:31:24.604Z,1999.90
2022-10-24T08:33:50.855Z,1999.90
2022-10-24T08:36:17.546Z,1999.90
2022-10-24T08:38:43.801Z,1999.90
2022-10-24T08:41:10.203Z,1999.90
2022-10-24T08:43:36.495Z,1999.90
2022-10-24T08:46:03.911Z,1999.90
2022-10-24T08:48:30.193Z,1999.90
2022-10-24T08:50:56.463Z,1999.90
2022-10-24T08:53:22.806Z,1999.90
2022-10-24T08:55:55.143Z,1999.90
2022-10-24T08:58:21.451Z,1999.90
2022-10-24T09:00:47.719Z,1999.90
2022-10-24T09:03:15.691Z,1999.90
2022-10-24T09:05:42.071Z,1999.90
2022-10-24T09:08:08.331Z,1999.90
2022-10-24T09:10:34.582Z,1999.90
2022-10-24T09:13:00.836Z,1999.90
2022-10-24T09:15:27.102Z,1999.90
2022-10-24T09:17:53.636Z,1999.90
2022-10-24T09:20:19.954Z,1999.90
2022-10-24T09:22:46.223Z,1999.90
2022-10-24T09:25:12.827Z,1999.90
2022-10-24T09:27:39.087Z,1999.90
2022-10-24T09:30:05.368Z,1999.90
2022-10-24T09:32:31.656Z,1999.90
2022-10-24T09:34:59.571Z,1999.90
2022-10-24T09:39:52.036Z,1999.90
2022-10-24T09:42:23.720Z,1999.90
2022-10-24T09:44:50.004Z,1999.90
2022-10-24T09:47:16.336Z,1999.90
2022-10-24T09:49:42.641Z,1999.90
2022-10-24T09:52:08.913Z,1999.90
2022-10-24T09:54:35.215Z,1999.90
2022-10-24T09:57:01.541Z,1999.90
2022-10-24T09:59:28.261Z,1999.90
2022-10-24T10:01:54.674Z,1999.90
2022-10-24T10:04:21.016Z,1999.90
2022-10-24T10:06:50.573Z,1999.90
2022-10-24T10:09:16.933Z,1999.90
2022-10-24T10:11:49.430Z,1999.90
2022-10-24T10:16:47.478Z,1999.90
2022-10-24T10:19:13.826Z,1999.90
2022-10-24T10:21:40.240Z,1999.90
2022-10-24T10:24:06.959Z,1999.90
2022-10-24T10:26:33.255Z,1999.90
2022-10-24T10:28:59.618Z,1999.90
2022-10-24T10:31:27.255Z,1999.90
2022-10-24T10:33:53.513Z,1999.90
2022-10-24T10:36:19.789Z,1999.90
2022-10-24T10:38:46.059Z,1999.90
2022-10-24T10:41:12.320Z,1999.90
2022-10-24T10:43:38.582Z,1999.90
2022-10-24T10:46:04.883Z,1999.90
2022-10-24T10:48:32.763Z,1999.90
2022-10-24T10:53:25.204Z,1999.90
2022-10-24T10:55:51.473Z,1999.90
2022-10-24T10:58:17.762Z,1999.90
2022-10-24T11:00:44.072Z,1999.90
2022-10-24T11:03:10.404Z,1999.90
2022-10-24T11:05:36.688Z,1999.90
2022-10-24T11:08:04.100Z,1999.90
2022-10-24T11:10:30.384Z,1999.90
2022-10-24T11:12:56.667Z,1999.90
2022-10-24T11:15:22.946Z,1999.90
2022-10-24T11:17:52.307Z,1999.90
2022-10-24T11:20:18.774Z,1999.90
2022-10-24T11:22:45.080Z,1999.90
2022-10-24T11:25:11.336Z,1999.90
2022-10-24T11:27:37.607Z,1999.90
2022-10-24T11:30:03.887Z,1999.90
2022-10-24T11:32:30.137Z,1999.90
2022-10-24T11:34:56.420Z,1999.90
2022-10-24T11:37:22.679Z,1999.90
2022-10-24T11:39:48.941Z,1999.90
2022-10-24T11:42:15.376Z,1999.90
2022-10-24T11:44:42.131Z,1999.90
2022-10-24T11:47:08.437Z,1999.90
2022-10-24T11:49:34.697Z,1999.90
2022-10-24T11:52:00.946Z,1999.90
2022-10-24T11:54:27.199Z,1999.90
2022-10-24T11:56:53.467Z,1999.90
2022-10-24T11:59:23.961Z,1999.90
2022-10-24T12:01:50.286Z,1999.90
2022-10-24T12:04:16.556Z,1999.90
2022-10-24T12:06:42.820Z,1999.90
2022-10-24T12:09:09.099Z,1999.90
2022-10-24T12:11:35.368Z,1999.90
2022-10-24T12:16:28.640Z,1999.90
2022-10-24T12:18:55.036Z,1999.90
2022-10-24T12:21:25.704Z,1999.90
2022-10-24T12:23:52.367Z,1999.90
2022-10-24T12:26:18.678Z,1999.90
2022-10-24T12:28:44.951Z,1999.90
2022-10-24T12:31:11.253Z,1999.90
2022-10-24T12:33:37.511Z,1999.90
2022-10-24T12:36:03.796Z,1999.90
2022-10-24T12:38:30.059Z,1999.90
2022-10-24T12:40:57.556Z,1999.90
2022-10-24T12:43:23.829Z,1999.90
2022-10-24T12:45:50.088Z,1999.90
2022-10-24T12:48:16.370Z,1999.90
2022-10-24T12:50:42.687Z,1999.90
2022-10-24T12:53:09.022Z,1999.90
2022-10-24T12:55:39.140Z,1999.90
2022-10-24T12:58:06.084Z,1999.90
2022-10-24T13:00:33.642Z,1999.90
2022-10-24T13:03:00.003Z,1999.90
2022-10-24T13:05:26.263Z,1999.90
2022-10-24T13:07:53.195Z,1999.90
2022-10-24T13:10:19.759Z,1999.90
2022-10-24T13:12:46.044Z,1999.90
2022-10-24T13:15:12.519Z,1999.90
2022-10-24T13:17:38.774Z,1999.90
2022-10-24T13:20:05.036Z,1999.90
2022-10-24T13:22:31.389Z,1999.90
2022-10-24T13:24:57.657Z,1999.90
2022-10-24T13:27:23.914Z,1999.90
2022-10-24T13:29:50.223Z,1999.90
2022-10-24T13:32:19.948Z,1999.90
2022-10-24T13:34:47.096Z,1999.90
2022-10-24T13:37:13.423Z,1999.90
2022-10-24T13:39:42.412Z,1999.90
2022-10-24T13:42:09.980Z,1999.90
2022-10-24T13:44:36.242Z,1999.90
2022-10-24T13:47:02.536Z,1999.90
2022-10-24T13:49:28.813Z,1999.90
2022-10-24T13:51:55.059Z,1999.90
2022-10-24T13:54:21.384Z,1999.90
2022-10-24T13:56:47.652Z,1999.90
2022-10-24T13:59:13.906Z,1999.90
2022-10-24T14:04:11.524Z,1999.90
2022-10-24T14:06:37.794Z,1999.90
2022-10-24T14:09:07.215Z,1999.90
2022-10-24T14:11:33.659Z,1999.90
2022-10-24T14:14:03.910Z,1999.90
2022-10-24T14:16:33.554Z,1999.90
2022-10-24T14:18:59.803Z,1999.90
2022-10-24T14:21:26.054Z,1999.90
2022-10-24T14:23:52.318Z,1999.90
2022-10-24T14:26:18.758Z,1999.90
2022-10-24T14:28:45.038Z,1999.90
2022-10-24T14:31:11.307Z,1999.90
2022-10-24T14:33:37.568Z,1999.90
2022-10-24T14:36:03.838Z,1999.90
2022-10-24T14:38:30.144Z,1999.90
2022-10-24T14:41:07.735Z,1999.90
2022-10-24T14:43:34.893Z,1999.90
2022-10-24T14:46:01.315Z,1999.90
2022-10-24T14:48:27.585Z,1999.90
2022-10-24T14:50:53.852Z,1999.90
2022-10-24T14:53:20.140Z,1999.90
2022-10-24T14:55:46.410Z,1999.90
2022-10-24T14:58:12.665Z,1999.90
2022-10-24T15:00:39.116Z,1999.90
2022-10-24T15:03:05.374Z,1999.90
2022-10-24T15:05:31.647Z,1999.90
2022-10-24T15:08:20.343Z,1999.90
2022-10-24T15:10:44.197Z,1999.90
2022-10-24T15:13:10.495Z,1999.90
2022-10-24T15:15:36.748Z,1999.90
2022-10-24T15:18:03.009Z,1999.90
2022-10-24T15:20:29.990Z,1999.90
2022-10-24T15:22:56.323Z,1999.90
2022-10-24T15:25:22.654Z,1999.90
2022-10-24T15:27:49.146Z,1999.90
2022-10-24T15:30:15.578Z,1999.90
2022-10-24T15:32:41.866Z,1999.90
2022-10-24T15:35:08.131Z,1999.90
2022-10-24T15:37:34.397Z,1999.90
2022-10-24T15:40:00.650Z,1999.90
2022-10-24T15:42:26.921Z,1999.90
2022-10-24T15:44:53.229Z,1999.90
2022-10-24T15:47:23.785Z,1999.90
2022-10-24T15:49:51.605Z,1999.90
2022-10-24T15:52:18.051Z,1999.90
2022-10-24T15:54:44.311Z,1999.90
2022-10-24T15:57:10.580Z,1999.90
2022-10-24T15:59:36.822Z,1999.90
2022-10-24T16:02:03.536Z,1999.90
2022-10-24T16:04:32.320Z,1999.90
2022-10-24T16:06:58.702Z,1999.90
2022-10-24T16:09:32.092Z,1999.90
2022-10-24T16:11:58.375Z,1999.90
2022-10-24T16:14:28.405Z,1999.90
2022-10-24T16:16:57.811Z,1999.90
2022-10-24T16:19:25.703Z,1999.90
2022-10-24T16:24:18.438Z,1999.90
2022-10-24T16:26:44.872Z,1999.90
2022-10-24T16:29:11.130Z,1999.90
2022-10-24T16:31:37.425Z,1999.90
2022-10-24T16:34:03.692Z,1999.90
2022-10-24T16:36:29.942Z,1999.90
2022-10-24T16:38:56.269Z,1999.90
2022-10-24T16:41:22.548Z,1999.90
2022-10-24T16:43:49.976Z,1999.90
2022-10-24T16:46:16.612Z,1999.90
2022-10-24T16:48:46.588Z,1999.90
2022-10-24T16:51:12.842Z,1999.90
2022-10-24T16:53:39.148Z,1999.90
2022-10-24T16:56:05.420Z,1999.90
2022-10-24T16:58:33.405Z,1999.90
2022-10-24T17:03:26.092Z,1999.90
2022-10-24T17:05:52.771Z,1999.90
2022-10-24T17:08:19.052Z,1999.90
2022-10-24T17:10:45.319Z,1999.90
2022-10-24T17:13:11.612Z,1999.90
2022-10-24T17:15:37.937Z,1999.90
2022-10-24T17:18:04.201Z,1999.90
2022-10-24T17:20:30.482Z,1999.90
2022-10-24T17:22:56.790Z,1999.90
2022-10-24T17:25:23.099Z,1999.90
2022-10-24T17:27:49.457Z,1999.90
2022-10-24T17:30:15.766Z,1999.90
2022-10-24T17:32:42.031Z,1999.90
2022-10-24T17:35:08.366Z,1999.90
2022-10-24T17:37:34.638Z,1999.90
2022-10-24T17:40:00.947Z,1999.90
2022-10-24T17:42:27.217Z,1999.90
2022-10-24T17:44:53.488Z,1999.90
2022-10-24T17:47:19.769Z,1999.90
2022-10-24T17:49:46.034Z,1999.90
2022-10-24T17:52:12.310Z,1999.90
2022-10-24T17:54:43.485Z,1999.90
2022-10-24T17:57:12.269Z,1999.90
2022-10-24T17:59:38.538Z,1999.90
2022-10-24T18:02:04.954Z,1999.90
2022-10-24T18:07:02.467Z,1999.90
2022-10-24T18:09:29.673Z,1999.90
2022-10-24T18:11:57.325Z,1999.90
2022-10-24T18:14:23.742Z,1999.90
2022-10-24T18:16:50.014Z,1999.90
2022-10-24T18:19:16.284Z,1999.90
2022-10-24T18:21:43.671Z,1999.90
2022-10-24T18:24:09.936Z,1999.90
2022-10-24T18:26:36.211Z,1999.90
2022-10-24T18:29:02.521Z,1999.90
2022-10-24T18:31:28.871Z,1999.90
2022-10-24T18:33:55.269Z,1999.90
2022-10-24T18:36:21.563Z,1999.90
2022-10-24T18:38:47.820Z,1999.90
2022-10-24T18:41:14.071Z,1999.90
2022-10-24T18:43:40.642Z,1999.90
2022-10-24T18:46:06.953Z,1999.90
2022-10-24T18:48:33.219Z,1999.90
2022-10-24T18:50:59.490Z,1999.90
2022-10-24T18:53:25.835Z,1999.90
2022-10-24T18:55:52.315Z,1999.90
2022-10-24T18:58:19.088Z,1999.90
2022-10-24T19:00:45.417Z,1999.90
2022-10-24T19:03:11.825Z,1999.90
2022-10-24T19:05:38.081Z,1999.90
2022-10-24T19:08:04.342Z,1999.90
2022-10-24T19:10:30.608Z,1999.90
2022-10-24T19:12:57.386Z,1999.90
2022-10-24T19:15:23.646Z,1999.90
2022-10-24T19:17:49.899Z,1999.90
2022-10-24T19:20:16.164Z,1999.90
2022-10-24T19:22:42.431Z,1999.90
2022-10-24T19:25:08.763Z,1999.90
2022-10-24T19:27:35.061Z,1999.90
2022-10-24T19:30:01.343Z,1999.90
2022-10-24T19:32:27.610Z,1999.90
2022-10-24T19:34:53.913Z,1999.90
2022-10-24T19:37:20.162Z,1999.90
2022-10-24T19:39:46.438Z,1999.90
2022-10-24T19:42:12.691Z,1999.90
2022-10-24T19:44:39.373Z,1999.90
2022-10-24T19:47:05.725Z,1999.90
2022-10-24T19:49:31.991Z,1999.90
2022-10-24T19:51:59.624Z,1999.90
2022-10-24T19:54:26.005Z,1999.90
2022-10-24T19:56:52.268Z,1999.90
2022-10-24T19:59:18.526Z,1999.90
2022-10-24T20:01:44.912Z,1999.90
2022-10-24T20:04:11.399Z,1999.90
2022-10-24T20:06:37.672Z,1999.90
2022-10-24T20:09:03.950Z,1528.47
2022-10-24T20:11:30.318Z,1531.40
2022-10-24T20:13:56.587Z,1999.90
2022-10-24T20:16:22.851Z,1999.90
2022-10-24T20:18:49.173Z,1999.90
2022-10-24T20:21:17.555Z,1999.90
2022-10-24T20:23:43.818Z,1999.90
2022-10-24T20:26:10.123Z,1525.55
2022-10-24T20:28:36.380Z,1524.03
2022-10-24T20:31:02.636Z,1522.70
2022-10-24T20:33:28.899Z,1523.55
2022-10-24T20:35:55.146Z,94.22
2022-10-24T20:38:23.372Z,85.07
2022-10-24T20:40:49.614Z,88.13
2022-10-24T20:43:15.870Z,1058.40
2022-10-24T20:45:42.133Z,1542.72
2022-10-24T20:48:08.413Z,195.05
2022-10-24T20:50:34.697Z,188.98
2022-10-24T20:53:00.944Z,203.25
2022-10-24T20:55:39.599Z,182.48
2022-10-24T20:58:09.919Z,146.15
2022-10-24T21:00:36.211Z,112.13
2022-10-24T21:03:02.475Z,102.20
2022-10-24T21:05:29.057Z,122.45
2022-10-24T21:07:55.887Z,142.68
2022-10-24T21:10:22.943Z,133.65
2022-10-24T21:12:49.506Z,111.73
2022-10-24T21:15:15.939Z,88.53
2022-10-24T21:17:42.199Z,83.90
2022-10-24T21:20:08.446Z,107.85
2022-10-24T21:22:34.697Z,85.38
2022-10-24T21:25:00.975Z,76.05
2022-10-24T21:27:27.224Z,76.93
2022-10-24T21:29:53.622Z,74.57
2022-10-24T21:32:19.863Z,74.28
2022-10-24T21:34:46.134Z,76.50
2022-10-24T21:37:12.391Z,73.68
2022-10-24T21:39:38.667Z,72.55
2022-10-24T21:42:06.027Z,74.38
2022-10-24T21:44:32.332Z,74.05
2022-10-24T21:46:58.608Z,71.65
2022-10-24T21:49:25.618Z,84.75
2022-10-24T21:51:51.878Z,108.87
2022-10-24T21:54:18.133Z,181.05
2022-10-24T21:56:44.426Z,183.43
2022-10-24T21:59:10.686Z,134.00
2022-10-24T22:01:37.184Z,87.65
2022-10-24T22:04:03.576Z,79.00
2022-10-24T22:06:29.819Z,75.88
2022-10-24T22:08:56.071Z,77.45
2022-10-24T22:11:22.314Z,67.13
2022-10-24T22:13:48.643Z,71.50
2022-10-24T22:16:14.938Z,67.32
2022-10-24T22:18:41.220Z,64.00
2022-10-24T22:21:09.826Z,62.00
2022-10-24T22:23:36.990Z,59.78
2022-10-24T22:26:03.510Z,63.45
2022-10-24T22:28:29.758Z,77.82
2022-10-24T22:30:56.011Z,110.32
2022-10-24T22:33:22.419Z,118.25
2022-10-24T22:35:48.689Z,97.20
2022-10-24T22:38:14.966Z,93.05
2022-10-24T22:40:41.270Z,79.50
2022-10-24T22:43:07.660Z,75.70
2022-10-24T22:45:33.915Z,66.80
2022-10-24T22:48:00.196Z,61.58
2022-10-24T22:50:26.446Z,61.55
2022-10-24T22:52:52.720Z,71.63
2022-10-24T22:55:19.612Z,72.50
2022-10-24T22:57:46.052Z,75.60
2022-10-24T23:00:12.298Z,78.75
2022-10-24T23:02:40.859Z,79.85
2022-10-24T23:05:07.119Z,78.35
2022-10-24T23:07:33.366Z,79.38
2022-10-24T23:09:59.628Z,71.45
2022-10-24T23:12:25.874Z,60.20
2022-10-24T23:14:52.395Z,56.65
2022-10-24T23:17:18.651Z,54.15
2022-10-24T23:19:45.535Z,54.00
2022-10-24T23:22:11.789Z,55.60
2022-10-24T23:24:38.087Z,54.45
2022-10-24T23:27:04.358Z,59.97
2022-10-24T23:29:30.620Z,55.83
2022-10-24T23:31:56.898Z,58.97
2022-10-24T23:34:23.156Z,61.88
2022-10-24T23:36:49.554Z,61.92
2022-10-24T23:39:15.853Z,63.60
2022-10-24T23:41:42.146Z,61.42
2022-10-24T23:44:08.397Z,63.65
2022-10-24T23:46:34.643Z,60.03
2022-10-24T23:49:00.895Z,61.47
2022-10-24T23:51:27.142Z,62.60
2022-10-24T23:53:53.432Z,60.15
2022-10-24T23:56:19.692Z,57.25
2022-10-24T23:58:45.967Z,63.05
